createdAt,value
2018-11-05T00:02:34.129Z,1.87
2018-11-05T00:05:14.683Z,7.97
2018-11-05T00:07:56.044Z,2.40
2018-11-05T00:10:36.492Z,2.90
2018-11-05T00:13:16.873Z,2.63
2018-11-05T00:15:57.352Z,2.57
2018-11-05T00:18:37.820Z,6.20
2018-11-05T00:21:19.164Z,3.50
2018-11-05T00:23:59.584Z,5.23
2018-11-05T00:26:40.024Z,1.97
2018-11-05T00:29:21.228Z,7.03
2018-11-05T00:32:02.192Z,1.70
2018-11-05T00:34:42.763Z,4.63
2018-11-05T00:37:23.184Z,5.60
2018-11-05T00:40:03.617Z,7.13
2018-11-05T00:42:44.823Z,5.90
2018-11-05T00:45:25.550Z,4.00
2018-11-05T00:48:06.272Z,3.90
2018-11-05T00:50:46.764Z,1.57
2018-11-05T00:53:27.407Z,1.80
2018-11-05T00:56:07.854Z,8.63
2018-11-05T00:58:48.549Z,2.43
2018-11-05T01:01:29.903Z,4.97
2018-11-05T01:04:11.064Z,9.30
2018-11-05T01:06:51.996Z,1.67
2018-11-05T01:09:32.550Z,4.00
2018-11-05T01:12:12.939Z,2.07
2018-11-05T01:14:53.623Z,1.70
2018-11-05T01:17:35.078Z,2.40
2018-11-05T01:20:16.079Z,1.60
2018-11-05T01:22:57.037Z,1.70
2018-11-05T01:25:37.596Z,1.83
2018-11-05T01:28:18.088Z,11.40
2018-11-05T01:30:58.647Z,4.50
2018-11-05T01:33:39.196Z,3.10
2018-11-05T01:36:20.527Z,2.00
2018-11-05T01:39:01.237Z,1.73
2018-11-05T01:41:41.759Z,3.33
2018-11-05T01:44:22.198Z,5.90
2018-11-05T01:47:02.742Z,5.60
2018-11-05T01:49:43.476Z,1.60
2018-11-05T01:52:23.975Z,3.63
2018-11-05T01:55:05.400Z,3.47
2018-11-05T01:57:45.889Z,3.33
2018-11-05T02:00:26.316Z,5.30
2018-11-05T02:03:07.036Z,6.93
2018-11-05T02:05:47.835Z,1.60
2018-11-05T02:08:28.284Z,7.63
2018-11-05T02:11:08.756Z,1.87
2018-11-05T02:13:49.732Z,1.57
2018-11-05T02:16:30.817Z,2.40
2018-11-05T02:19:11.244Z,3.80
2018-11-05T02:21:51.799Z,1.73
2018-11-05T02:24:32.236Z,5.73
2018-11-05T02:27:12.814Z,7.80
2018-11-05T02:29:54.153Z,1.77
2018-11-05T02:32:34.714Z,2.10
2018-11-05T02:35:15.919Z,1.50
2018-11-05T02:37:56.908Z,1.57
2018-11-05T02:40:37.444Z,1.87
2018-11-05T02:43:17.948Z,1.60
2018-11-05T02:45:58.578Z,1.30
2018-11-05T02:48:39.227Z,1.67
2018-11-05T02:51:19.677Z,1.80
2018-11-05T02:54:00.160Z,1.73
2018-11-05T02:56:40.675Z,4.23
2018-11-05T02:59:22.087Z,1.80
2018-11-05T03:02:02.663Z,4.17
2018-11-05T03:04:43.183Z,2.50
2018-11-05T03:07:23.904Z,1.60
2018-11-05T03:10:04.353Z,4.63
2018-11-05T03:12:45.813Z,1.77
2018-11-05T03:15:26.659Z,2.00
2018-11-05T03:18:08.033Z,1.90
2018-11-05T03:20:48.435Z,2.00
2018-11-05T03:23:29.822Z,1.80
2018-11-05T03:26:10.381Z,2.07
2018-11-05T03:28:50.983Z,1.80
2018-11-05T03:31:32.270Z,3.27
2018-11-05T03:34:13.179Z,1.83
2018-11-05T03:36:54.221Z,2.47
2018-11-05T03:39:34.779Z,2.10
2018-11-05T03:42:15.284Z,2.70
2018-11-05T03:44:55.861Z,1.43
2018-11-05T03:47:36.440Z,1.83
2018-11-05T03:50:17.410Z,3.17
2018-11-05T03:52:59.015Z,2.30
2018-11-05T03:55:39.924Z,3.63
2018-11-05T03:58:20.506Z,3.63
2018-11-05T04:01:01.039Z,3.67
2018-11-05T04:03:42.216Z,1.87
2018-11-05T04:06:23.097Z,2.50
2018-11-05T04:09:05.227Z,4.00
2018-11-05T04:11:46.144Z,1.33
2018-11-05T04:14:26.684Z,1.83
2018-11-05T04:17:08.237Z,3.17
2018-11-05T04:19:49.547Z,2.00
2018-11-05T04:22:30.243Z,2.87
2018-11-05T04:25:11.664Z,2.00
2018-11-05T04:27:52.239Z,1.83
2018-11-05T04:30:32.771Z,4.53
2018-11-05T04:33:13.456Z,3.33
2018-11-05T04:35:54.088Z,1.40
2018-11-05T04:38:34.758Z,2.10
2018-11-05T04:41:15.363Z,1.83
2018-11-05T04:43:56.072Z,1.63
2018-11-05T04:46:36.559Z,2.47
2018-11-05T04:49:17.019Z,1.57
2018-11-05T04:51:57.715Z,1.60
2018-11-05T04:54:38.157Z,2.30
2018-11-05T04:57:19.508Z,3.33
2018-11-05T05:00:04.220Z,4.30
2018-11-05T05:02:45.556Z,2.20
2018-11-05T05:05:26.973Z,3.50
2018-11-05T05:08:07.623Z,2.90
2018-11-05T05:10:48.118Z,7.30
2018-11-05T05:13:28.633Z,1.73
2018-11-05T05:16:10.069Z,2.60
2018-11-05T05:18:50.512Z,3.47
2018-11-05T05:21:31.075Z,2.30
2018-11-05T05:24:11.575Z,2.07
2018-11-05T05:26:51.988Z,11.90
2018-11-05T05:29:32.559Z,2.17
2018-11-05T05:32:13.171Z,3.47
2018-11-05T05:34:53.751Z,2.33
2018-11-05T05:37:34.382Z,4.60
2018-11-05T05:40:15.284Z,1.80
2018-11-05T05:42:55.971Z,2.73
2018-11-05T05:45:36.752Z,4.83
2018-11-05T05:48:17.243Z,4.80
2018-11-05T05:50:58.626Z,2.70
2018-11-05T05:53:39.455Z,3.70
2018-11-05T05:56:20.823Z,4.07
2018-11-05T05:59:01.452Z,4.40
2018-11-05T06:01:41.955Z,4.20
2018-11-05T06:04:22.597Z,3.57
2018-11-05T06:07:04.118Z,3.07
2018-11-05T06:09:45.484Z,6.17
2018-11-05T06:12:26.148Z,3.70
2018-11-05T06:15:06.560Z,4.93
2018-11-05T06:17:47.073Z,2.90
2018-11-05T06:20:28.444Z,4.47
2018-11-05T06:23:09.032Z,3.30
2018-11-05T06:25:49.481Z,3.57
2018-11-05T06:28:30.076Z,3.20
2018-11-05T06:31:11.444Z,6.93
2018-11-05T06:33:52.113Z,5.90
2018-11-05T06:36:32.549Z,5.63
2018-11-05T06:39:13.962Z,3.20
2018-11-05T06:41:54.559Z,3.97
2018-11-05T06:44:34.928Z,5.40
2018-11-05T06:47:16.264Z,4.40
2018-11-05T06:49:56.832Z,7.23
2018-11-05T06:52:37.469Z,6.60
2018-11-05T06:55:18.012Z,10.20
2018-11-05T06:57:58.708Z,4.93
2018-11-05T07:00:39.212Z,9.93
2018-11-05T07:03:19.820Z,4.90
2018-11-05T07:06:00.484Z,7.13
2018-11-05T07:08:41.005Z,12.90
2018-11-05T07:11:21.499Z,7.37
2018-11-05T07:14:02.012Z,17.30
2018-11-05T07:16:42.552Z,10.27
2018-11-05T07:19:24.022Z,13.60
2018-11-05T07:22:05.440Z,12.00
2018-11-05T07:24:45.872Z,5.70
2018-11-05T07:27:26.479Z,9.80
2018-11-05T07:30:06.925Z,7.93
2018-11-05T07:32:48.082Z,6.03
2018-11-05T07:35:28.956Z,10.13
2018-11-05T07:38:10.469Z,6.73
2018-11-05T07:40:51.029Z,15.03
2018-11-05T07:43:31.588Z,6.60
2018-11-05T07:46:12.811Z,9.80
2018-11-05T07:48:53.801Z,6.20
2018-11-05T07:51:34.905Z,9.87
2018-11-05T07:54:15.785Z,8.70
2018-11-05T07:56:56.353Z,5.47
2018-11-05T07:59:37.804Z,6.30
2018-11-05T08:02:19.099Z,4.57
2018-11-05T08:04:59.784Z,5.40
2018-11-05T08:07:40.653Z,3.73
2018-11-05T08:10:21.940Z,5.30
2018-11-05T08:13:03.343Z,6.30
2018-11-05T08:15:43.817Z,12.00
2018-11-05T08:18:24.274Z,8.63
2018-11-05T08:21:04.927Z,4.60
2018-11-05T08:23:45.591Z,32.50
2018-11-05T08:26:26.980Z,6.03
2018-11-05T08:29:07.643Z,11.90
2018-11-05T08:31:48.252Z,3.77
2018-11-05T08:34:28.904Z,3.97
2018-11-05T08:37:10.472Z,11.03
2018-11-05T08:39:51.848Z,4.20
2018-11-05T08:42:32.391Z,11.80
2018-11-05T08:45:15.147Z,3.40
2018-11-05T08:47:56.211Z,4.27
2018-11-05T08:50:37.616Z,9.90
2018-11-05T08:53:18.283Z,2.57
2018-11-05T08:55:59.632Z,6.30
2018-11-05T08:58:41.082Z,2.73
2018-11-05T09:01:22.684Z,5.07
2018-11-05T09:04:04.012Z,9.23
2018-11-05T09:06:45.384Z,4.13
2018-11-05T09:09:26.018Z,4.60
2018-11-05T09:12:07.452Z,9.57
2018-11-05T09:14:48.733Z,6.13
2018-11-05T09:17:29.345Z,6.77
2018-11-05T09:20:11.954Z,8.20
2018-11-05T09:22:53.531Z,5.50
2018-11-05T09:25:34.810Z,2.53
2018-11-05T09:28:15.265Z,2.80
2018-11-05T09:30:55.727Z,12.30
2018-11-05T09:33:36.284Z,5.17
2018-11-05T09:36:17.152Z,10.43
2018-11-05T09:38:58.451Z,4.13
2018-11-05T09:41:38.970Z,9.77
2018-11-05T09:44:20.516Z,5.57
2018-11-05T09:47:02.099Z,5.43
2018-11-05T09:49:43.458Z,4.77
2018-11-05T09:52:24.892Z,9.43
2018-11-05T09:55:06.413Z,7.43
2018-11-05T09:57:47.760Z,4.97
2018-11-05T10:00:29.076Z,7.00
2018-11-05T10:03:16.706Z,10.00
2018-11-05T10:05:57.375Z,5.97
2018-11-05T10:08:38.724Z,9.90
2018-11-05T10:11:19.556Z,14.43
2018-11-05T10:14:00.992Z,11.03
2018-11-05T10:16:42.375Z,13.90
2018-11-05T10:19:23.780Z,12.40
2018-11-05T10:22:05.270Z,10.20
2018-11-05T10:24:46.585Z,15.43
2018-11-05T10:27:27.517Z,17.83
2018-11-05T10:30:07.967Z,12.20
2018-11-05T10:32:48.572Z,12.37
2018-11-05T10:35:34.996Z,27.40
2018-11-05T10:38:16.253Z,16.80
2018-11-05T10:40:56.780Z,18.70
2018-11-05T10:43:37.302Z,23.37
2018-11-05T10:46:18.892Z,32.43
2018-11-05T10:49:00.189Z,18.23
2018-11-05T10:51:41.003Z,16.00
2018-11-05T10:54:22.292Z,24.07
2018-11-05T10:57:03.720Z,24.80
2018-11-05T10:59:44.976Z,20.67
2018-11-05T11:02:30.736Z,9.73
2018-11-05T11:05:11.975Z,7.70
2018-11-05T11:07:54.447Z,16.40
